Главная страница
METAR-TAF:

METAR-TAF

Аэропорты :

Сейшелы

Виктория, Маэ, Сейшелы

широта: 04-40S, долгота: 055-31E, высота над уровнем моря: 3 м

Текущие метеонаблюдения

Эта сводка был подготовлена 27 минут назад, в 01:00 UTC
Ветер 12 Узел от восточно-юго-восточный, изменяющийся между восточный и юго-юго-восточный
Температура 26°C
Влажность 84%
Давление 1010 hPa
Видимость 10 км и более
Отдельные облака на высоте 1500 фута

METAR: FSIA 240100Z 12012KT 100V160 9999 R13///// SCT015 26/23 Q1010 NOSIG

Время: 05:27 (01:27 UTC)

Прогноз

Эта сводка был подготовлена 2 часа и 26 минут назад, в 23:01 UTC
Прогноз действительный с 24-го 00 UTC до 24-го 24 UTC
Ветер 15 Узел от юго-юго-восточный
Видимость 10 км и более
Отдельные облака на высоте 2200 фута
Вероятность 40% :
временами
С 24-го 10 UTC до 24-го 18 UTC
Рассеянная облачность на высоте 1800 фута
небольшие ливневые дожди

TAF: FSIA 232301Z 2400/2424 15015KT 9999 SCT022 PROB40 TEMPO 2410/2418 -SHRA BKN018

Метеонаблюдения и прогнозы для более 4000 аэропортов (сводки METAR и TAF).

Имеющиеся станции представлены на карте желтыми и красными точками.

Чтобы увидеть название станции, наведите на нее мышь.

Затем щелкните, чтобы увидеть метеонаблюдения и метеопрогнозы.

Управление картой: чтобы увеличить масштаб, щелкните зеленые кнопки с черным крестиком; чтобы уменьшить масштаб, щелкните зеленую кнопку с тире; для просмотра соседних карт щелкайте зеленые стрелки.


METAR-TAF: